Terminal Aerodrome Forecast
Issued by NWS Brownsville, TX

Home | Current Version | Previous Version | Text Only | Print | Product List | Glossary On
Versions: 1 2 3 4 5 6 7 8 9 10 11 12 13 14 15 16 17 18 19
000
FTUS44 KBRO 291520 AAB
TAFMFE
TAF AMD
KMFE 291520Z 2915/3012 16017G23KT 5SM HZ SCT018
     FM292000 15012G18KT P6SM SKC
     FM300300 14016G22KT 5SM BR BKN025
     FM300900 33022G28KT P6SM OVC025=

USA.gov is the U.S. government's official web portal to all federal, state and local government web resources and services.